createdAt,value
2023-01-15T00:02:58.421Z,16.98
2023-01-15T00:08:02.679Z,17.00
2023-01-15T00:13:08.444Z,19.90
2023-01-15T00:18:09.423Z,18.70
2023-01-15T00:23:32.080Z,20.88
2023-01-15T00:28:32.864Z,18.63
2023-01-15T00:33:41.046Z,18.52
2023-01-15T00:38:40.067Z,17.60
2023-01-15T00:43:43.489Z,18.23
2023-01-15T00:48:45.979Z,18.67
2023-01-15T00:53:47.958Z,17.85
2023-01-15T00:58:52.698Z,16.98
2023-01-15T01:03:58.283Z,17.65
2023-01-15T01:08:57.980Z,17.17
2023-01-15T01:14:01.481Z,16.98
2023-01-15T01:24:06.999Z,16.80
2023-01-15T01:29:10.047Z,18.52
2023-01-15T01:34:14.282Z,15.55
2023-01-15T01:39:16.410Z,17.98
2023-01-15T01:44:54.100Z,13.25
2023-01-15T01:50:13.951Z,14.48
2023-01-15T01:55:19.092Z,20.67
2023-01-15T02:00:33.183Z,18.27
2023-01-15T02:05:41.625Z,21.75
2023-01-15T02:10:57.472Z,16.65
2023-01-15T02:16:19.897Z,16.27
2023-01-15T02:21:27.729Z,13.18
2023-01-15T02:27:02.462Z,13.00
2023-01-15T02:32:10.368Z,11.48
2023-01-15T02:37:20.345Z,12.32
2023-01-15T02:42:24.885Z,12.20
2023-01-15T02:47:28.905Z,11.82
2023-01-15T02:52:38.470Z,12.38
2023-01-15T02:57:45.961Z,11.63
2023-01-15T03:02:55.604Z,11.10
2023-01-15T03:07:58.110Z,12.38
2023-01-15T03:13:08.769Z,11.18
2023-01-15T03:18:21.520Z,10.68
2023-01-15T03:23:25.834Z,12.10
2023-01-15T03:28:32.884Z,12.73
2023-01-15T03:33:32.715Z,13.23
2023-01-15T03:38:34.508Z,10.45
2023-01-15T03:43:47.230Z,14.60
2023-01-15T03:48:57.575Z,13.98
2023-01-15T03:53:59.443Z,13.52
2023-01-15T03:59:04.065Z,12.80
2023-01-15T04:04:20.063Z,14.57
2023-01-15T04:09:23.087Z,13.50
2023-01-15T04:14:27.001Z,13.48
2023-01-15T04:19:30.061Z,13.82
2023-01-15T04:24:38.710Z,12.63
2023-01-15T04:29:53.435Z,13.27
2023-01-15T04:34:56.031Z,12.93
2023-01-15T04:40:02.359Z,11.95
2023-01-15T04:45:07.354Z,13.95
2023-01-15T04:50:13.103Z,12.68
2023-01-15T04:55:13.548Z,17.90
2023-01-15T05:00:16.830Z,16.15
2023-01-15T05:05:22.288Z,13.68
2023-01-15T05:10:26.293Z,16.27
2023-01-15T05:15:43.094Z,16.88
2023-01-15T05:20:43.204Z,18.75
2023-01-15T05:25:42.470Z,18.65
2023-01-15T05:30:43.358Z,17.70
2023-01-15T05:35:45.080Z,16.23
2023-01-15T05:40:44.288Z,108.38
2023-01-15T05:45:44.905Z,182.10
2023-01-15T05:50:45.364Z,50.20
2023-01-15T05:55:44.967Z,67.90
2023-01-15T06:00:45.675Z,29.88
2023-01-15T06:05:44.979Z,28.45
2023-01-15T06:10:50.840Z,20.38
2023-01-15T06:15:51.747Z,17.17
2023-01-15T06:20:52.882Z,21.60
2023-01-15T06:25:52.047Z,21.38
2023-01-15T06:30:52.612Z,25.35
2023-01-15T06:35:55.087Z,24.90
2023-01-15T06:40:54.250Z,27.52
2023-01-15T06:46:12.034Z,50.28
2023-01-15T06:51:19.208Z,33.80
2023-01-15T06:56:18.399Z,42.45
2023-01-15T07:01:21.925Z,33.05
2023-01-15T07:06:28.162Z,31.00
2023-01-15T07:11:31.022Z,25.17
2023-01-15T07:16:40.742Z,23.33
2023-01-15T07:21:40.367Z,21.27
2023-01-15T07:26:40.012Z,18.95
2023-01-15T07:32:25.925Z,18.67
2023-01-15T07:37:29.443Z,16.90
2023-01-15T07:48:14.044Z,16.30
2023-01-15T07:53:14.477Z,17.55
2023-01-15T08:04:44.222Z,19.55
2023-01-15T08:09:47.221Z,18.77
2023-01-15T08:15:03.830Z,18.80
2023-01-15T08:20:03.810Z,19.27
2023-01-15T08:25:04.322Z,18.88
2023-01-15T08:30:03.517Z,19.80
2023-01-15T08:35:02.765Z,23.10
2023-01-15T08:40:03.441Z,21.88
2023-01-15T08:45:02.583Z,19.35
2023-01-15T08:50:01.760Z,20.25
2023-01-15T08:55:00.956Z,17.17
2023-01-15T09:00:04.637Z,17.73
2023-01-15T09:05:03.631Z,20.13
2023-01-15T09:10:02.766Z,26.65
2023-01-15T09:15:03.523Z,18.75
2023-01-15T09:20:03.378Z,18.05
2023-01-15T09:25:02.645Z,15.63
2023-01-15T09:30:03.126Z,11.68
2023-01-15T09:35:02.662Z,12.43
2023-01-15T09:40:02.516Z,13.70
2023-01-15T09:45:16.384Z,13.07
2023-01-15T09:50:26.744Z,13.00
2023-01-15T09:55:29.981Z,14.23
2023-01-15T10:06:47.280Z,10.15
2023-01-15T10:12:07.201Z,11.27
2023-01-15T10:17:16.494Z,11.45
2023-01-15T10:22:28.861Z,10.90
2023-01-15T10:27:33.367Z,11.53
2023-01-15T10:33:00.621Z,13.00
2023-01-15T10:38:15.102Z,13.38
2023-01-15T10:43:22.157Z,15.95
2023-01-15T10:48:28.708Z,14.57
2023-01-15T10:53:36.398Z,13.43
2023-01-15T10:58:41.295Z,13.27
2023-01-15T11:03:44.962Z,12.95
2023-01-15T11:09:08.501Z,13.10
2023-01-15T11:14:24.523Z,12.45
2023-01-15T11:19:38.186Z,11.23
2023-01-15T11:24:48.777Z,11.23
2023-01-15T11:29:53.558Z,10.43
2023-01-15T11:34:56.355Z,8.55
2023-01-15T11:40:00.591Z,9.00
2023-01-15T11:45:13.757Z,14.27
2023-01-15T11:50:36.861Z,10.32
2023-01-15T11:55:38.811Z,8.03
2023-01-15T12:00:53.446Z,6.25
2023-01-15T12:05:59.310Z,6.45
2023-01-15T12:11:25.847Z,7.60
2023-01-15T12:16:36.911Z,7.32
2023-01-15T12:21:54.235Z,6.03
2023-01-15T12:27:10.948Z,7.03
2023-01-15T12:32:15.927Z,9.18
2023-01-15T12:37:30.196Z,5.57
2023-01-15T12:42:51.457Z,7.00
2023-01-15T12:47:56.081Z,6.30
2023-01-15T12:53:03.110Z,6.65
2023-01-15T12:58:06.462Z,6.47
2023-01-15T13:03:17.334Z,5.63
2023-01-15T13:08:24.050Z,5.90
2023-01-15T13:13:26.495Z,5.90
2023-01-15T13:18:39.814Z,5.10
2023-01-15T13:23:54.855Z,6.60
2023-01-15T13:29:08.139Z,6.43
2023-01-15T13:34:15.986Z,12.95
2023-01-15T13:39:33.041Z,7.75
2023-01-15T13:44:42.682Z,6.43
2023-01-15T13:50:01.639Z,10.70
2023-01-15T13:55:30.186Z,7.28
2023-01-15T14:01:10.214Z,9.75
2023-01-15T14:06:19.978Z,10.18
2023-01-15T14:12:08.008Z,12.15
2023-01-15T14:17:56.815Z,11.57
2023-01-15T14:23:26.686Z,10.98
2023-01-15T14:29:20.772Z,8.45
2023-01-15T14:34:44.999Z,9.15
2023-01-15T14:39:54.837Z,9.38
2023-01-15T14:45:06.936Z,9.60
2023-01-15T14:50:40.988Z,10.57
2023-01-15T14:56:03.553Z,12.35
2023-01-15T15:01:24.511Z,13.55
2023-01-15T15:06:48.234Z,13.75
2023-01-15T15:12:07.902Z,16.77
2023-01-15T15:17:36.650Z,17.08
2023-01-15T15:23:04.829Z,27.13
2023-01-15T15:28:16.982Z,16.67
2023-01-15T15:33:27.879Z,17.45
2023-01-15T15:38:52.921Z,20.40
2023-01-15T15:44:14.603Z,23.38
2023-01-15T15:49:14.058Z,28.70
2023-01-15T15:54:21.185Z,31.48
2023-01-15T15:59:37.907Z,26.60
2023-01-15T16:04:45.671Z,28.35
2023-01-15T16:09:53.159Z,29.08
2023-01-15T16:15:01.007Z,30.17
2023-01-15T16:20:28.217Z,33.80
2023-01-15T16:26:30.466Z,38.65
2023-01-15T16:32:03.219Z,36.55
2023-01-15T16:42:29.002Z,59.53
2023-01-15T16:47:56.460Z,59.70
2023-01-15T16:53:03.064Z,43.28
2023-01-15T16:58:46.287Z,38.30
2023-01-15T17:04:01.230Z,38.33
2023-01-15T17:09:03.704Z,37.38
2023-01-15T17:14:30.413Z,38.53
2023-01-15T17:19:36.619Z,42.08
2023-01-15T17:29:56.851Z,38.53
2023-01-15T17:35:02.642Z,41.55
2023-01-15T17:40:14.571Z,42.83
2023-01-15T18:41:16.263Z,36.47
2023-01-15T18:46:50.130Z,37.97
2023-01-15T18:52:20.135Z,37.10
2023-01-15T19:02:48.263Z,41.05
2023-01-15T19:08:15.036Z,38.22
2023-01-15T19:14:10.031Z,29.77
2023-01-15T19:19:12.179Z,26.83
2023-01-15T19:24:19.341Z,24.20
2023-01-15T19:29:19.376Z,48.47
2023-01-15T19:34:33.068Z,27.58
2023-01-15T19:39:37.574Z,38.15
2023-01-15T19:44:54.528Z,28.13
2023-01-15T19:50:32.546Z,29.38
2023-01-15T19:55:50.116Z,43.60
2023-01-15T20:00:57.329Z,37.33
2023-01-15T20:05:57.805Z,39.75
2023-01-15T20:11:02.661Z,30.30
2023-01-15T20:16:20.653Z,23.67
2023-01-15T20:21:29.968Z,22.80
2023-01-15T20:26:34.404Z,27.15
2023-01-15T20:31:36.993Z,23.00
2023-01-15T20:36:36.390Z,19.45
2023-01-15T20:42:13.937Z,20.67
2023-01-15T20:47:38.044Z,15.52
2023-01-15T20:52:45.397Z,26.35
2023-01-15T20:57:57.324Z,20.25
2023-01-15T21:03:02.180Z,24.38
2023-01-15T21:08:24.344Z,23.10
2023-01-15T21:13:40.272Z,33.85
2023-01-15T21:18:51.238Z,28.27
2023-01-15T21:24:07.411Z,13.73
2023-01-15T21:29:19.741Z,10.80
2023-01-15T21:34:27.540Z,18.98
2023-01-15T21:39:32.239Z,20.00
2023-01-15T21:44:37.679Z,16.27
2023-01-15T21:49:38.663Z,17.63
2023-01-15T21:54:42.173Z,17.92
2023-01-15T22:04:47.343Z,15.70
2023-01-15T22:09:52.578Z,14.90
2023-01-15T22:14:56.028Z,17.67
2023-01-15T22:19:57.215Z,16.10
2023-01-15T22:24:59.015Z,18.00
2023-01-15T22:30:02.574Z,18.10
2023-01-15T22:35:13.917Z,27.58
2023-01-15T22:40:16.652Z,23.00
2023-01-15T22:45:28.314Z,20.57
2023-01-15T22:50:32.837Z,19.58
2023-01-15T22:55:36.511Z,20.60
2023-01-15T23:00:36.929Z,19.60
2023-01-15T23:05:40.667Z,21.25
2023-01-15T23:10:44.537Z,22.45
2023-01-15T23:15:47.674Z,22.92
2023-01-15T23:20:46.527Z,29.35
2023-01-15T23:25:47.927Z,29.10
2023-01-15T23:30:50.441Z,30.38
2023-01-15T23:35:49.599Z,34.00
2023-01-15T23:40:51.147Z,34.22
2023-01-15T23:46:09.405Z,27.80
2023-01-15T23:51:08.385Z,25.65
2023-01-15T23:56:08.378Z,22.65
